NORTHEAST SUFFOLK  -  Rip Current Statement Rip Current Statement        NORTHERN NASSAU  -  Rip Current Statement Rip Current Statement        NORTHERN QUEENS  -  Rip Current Statement Rip Current Statement     Air Quality Alert Air Quality Alert        NORTHWEST SUFFOLK  -  Rip Current Statement Rip Current Statement        SOUTHEAST SUFFOLK  -  Rip Current Statement Rip Current Statement        SOUTHERN NASSAU  -  Rip Current Statement Rip Current Statement        SOUTHERN QUEENS  -  Rip Current Statement Rip Current Statement     Air Quality Alert Air Quality Alert        SOUTHWEST SUFFOLK  -  Rip Current Statement Rip Current Statement      

Active alerts

Northern Queens
  Details for Northern Queens Rip Current Statement  +1 additional alert
Southern Queens
  Details for Southern Queens Rip Current Statement  +1 additional alert
Northern Nassau
  Details for Northern Nassau Rip Current Statement
Southern Nassau
  Details for Southern Nassau Rip Current Statement
Northwest Suffolk
  Details for Northwest Suffolk Rip Current Statement
Southwest Suffolk
  Details for Southwest Suffolk Rip Current Statement
Northeast Suffolk
  Details for Northeast Suffolk Rip Current Statement
Southeast Suffolk
  Details for Southeast Suffolk Rip Current Statement


WXM80 ListenWXM80 Stop

You find our weather info also at:

UK Metoffice

WeatherCloud

Weather Underground

Northeastern Weather Network

AWEKAS

Citizen Weather Observer Program (CWOP)

HAMweather, WeatherForYou, PWS Weather


Weather Underground History page Text

Daily Summary for November 9, 2016 Units:  English    Metric   Both
« Previous Day
Next Day »
Daily Weekly Monthly Yearly Custom
  High: Low: Average:
Temperature: 57.1 °F 49.4 °F 53.4 °F
Dew Point: 51.0 °F 39.8 °F 45.8 °F
Humidity: 86 % 63 % 76 %
Wind Speed: 11.3 mph 0.0 mph 2.2 mph
Wind Gust: 17.0 mph - -
Wind:- - SW
Pressure: 29.90 in 29.76 in -
Precipitation: 0.00 in    
Historical Graphs
 
 
Tabular Data for November 9, 2016
Time Temperature Dew Point Pressure Wind Wind Speed Wind Gust Humidity Rainfall Rate (Hourly)
00:00 51.2 °F 40.6 °F 29.86 in Calm     67 % 0.00 in
00:05 51.1 °F 40.5 °F 29.86 in Calm     67 % 0.00 in
00:10 51.0 °F 40.4 °F 29.86 in Calm     67 % 0.00 in
00:15 50.9 °F 40.7 °F 29.86 in Calm     68 % 0.00 in
00:20 50.8 °F 40.2 °F 29.85 in Calm   1.0 mph 67 % 0.00 in
00:25 50.8 °F 39.8 °F 29.86 in SSW 2.0 mph 3.0 mph 66 % 0.00 in
00:30 50.8 °F 39.8 °F 29.86 in SSW 1.0 mph 4.0 mph 66 % 0.00 in
00:35 50.9 °F 40.3 °F 29.85 in Calm   3.0 mph 67 % 0.00 in
00:40 51.0 °F 40.4 °F 29.85 in Calm   1.0 mph 67 % 0.00 in
00:45 51.1 °F 40.9 °F 29.85 in SSW 1.0 mph 3.0 mph 68 % 0.00 in
00:50 51.1 °F 40.6 °F 29.85 in Calm   4.0 mph 67 % 0.00 in
00:55 51.2 °F 40.6 °F 29.85 in Calm   3.0 mph 67 % 0.00 in
01:00 51.2 °F 40.2 °F 29.84 in SSW 1.3 mph 2.3 mph 66 % 0.00 in
01:05 51.2 °F 40.6 °F 29.84 in SSW 1.3 mph 2.3 mph 67 % 0.00 in
01:10 51.3 °F 40.7 °F 29.85 in SSW 2.1 mph 3.5 mph 67 % 0.00 in
01:16 51.3 °F 40.3 °F 29.84 in SSW 1.2 mph 3.0 mph 66 % 0.00 in
01:21 51.3 °F 40.3 °F 29.84 in SSW 0.1 mph 1.2 mph 66 % 0.00 in
01:26 51.4 °F 40.4 °F 29.84 in SSW 1.1 mph 2.3 mph 66 % 0.00 in
01:31 51.4 °F 40.4 °F 29.84 in SW 1.3 mph 2.3 mph 66 % 0.00 in
01:36 51.4 °F 40.4 °F 29.84 in SW 1.1 mph 3.5 mph 66 % 0.00 in
01:41 51.4 °F 40.0 °F 29.84 in SW 1.1 mph 3.5 mph 65 % 0.00 in
01:46 51.5 °F 40.1 °F 29.84 in SW 1.1 mph 2.3 mph 65 % 0.00 in
01:51 51.6 °F 40.2 °F 29.84 in SW 1.3 mph 2.3 mph 65 % 0.00 in
01:56 51.6 °F 40.2 °F 29.84 in SW 2.4 mph 3.5 mph 65 % 0.00 in
02:01 51.6 °F 40.2 °F 29.84 in SW 1.9 mph 3.5 mph 65 % 0.00 in
02:07 51.7 °F 39.9 °F 29.83 in SW 2.6 mph 3.5 mph 64 % 0.00 in
02:12 51.7 °F 39.9 °F 29.83 in SW 2.9 mph 3.5 mph 64 % 0.00 in
02:17 51.8 °F 40.0 °F 29.83 in SW 1.2 mph 3.5 mph 64 % 0.00 in
02:22 51.8 °F 40.0 °F 29.83 in SSW 2.5 mph 3.5 mph 64 % 0.00 in
02:27 51.8 °F 40.0 °F 29.83 in SSW 1.9 mph 3.5 mph 64 % 0.00 in
02:32 51.9 °F 40.1 °F 29.83 in SW 1.7 mph 3.5 mph 64 % 0.00 in
02:37 51.9 °F 40.1 °F 29.83 in SW 1.7 mph 3.5 mph 64 % 0.00 in
02:42 51.9 °F 40.1 °F 29.82 in SW 1.7 mph 4.0 mph 64 % 0.00 in
02:47 52.0 °F 40.2 °F 29.82 in SW 1.6 mph 3.5 mph 64 % 0.00 in
02:52 52.1 °F 40.3 °F 29.82 in SW 1.1 mph 2.3 mph 64 % 0.00 in
02:58 52.2 °F 40.4 °F 29.82 in SW 1.7 mph 2.3 mph 64 % 0.00 in
03:03 52.3 °F 40.5 °F 29.82 in SW 1.1 mph 3.5 mph 64 % 0.00 in
03:08 52.3 °F 40.5 °F 29.82 in SW 2.5 mph 5.8 mph 64 % 0.00 in
03:13 52.4 °F 40.6 °F 29.82 in SW 1.4 mph 3.5 mph 64 % 0.00 in
03:18 52.5 °F 40.7 °F 29.82 in SW 0.4 mph 2.3 mph 64 % 0.00 in
03:23 52.5 °F 40.7 °F 29.82 in SW 1.1 mph 2.3 mph 64 % 0.00 in
03:28 52.6 °F 40.8 °F 29.82 in SW 0.6 mph 1.2 mph 64 % 0.00 in
03:33 52.6 °F 40.4 °F 29.82 in SW 1.0 mph 3.0 mph 63 % 0.00 in
03:38 52.6 °F 40.4 °F 29.82 in SW 1.7 mph 3.5 mph 63 % 0.00 in
03:43 52.6 °F 40.8 °F 29.82 in SW 1.5 mph 2.3 mph 64 % 0.00 in
03:49 52.6 °F 40.4 °F 29.82 in SW 0.9 mph 2.3 mph 63 % 0.00 in
03:54 52.6 °F 40.4 °F 29.82 in SW 0.2 mph 1.2 mph 63 % 0.00 in
03:59 52.6 °F 40.4 °F 29.81 in SW 0.2 mph 1.2 mph 63 % 0.00 in
04:04 52.6 °F 40.4 °F 29.81 in Calm   1.2 mph 63 % 0.00 in
04:09 52.6 °F 40.4 °F 29.81 in WSW 1.9 mph 3.5 mph 63 % 0.00 in
04:14 52.7 °F 40.9 °F 29.81 in WSW 1.4 mph 3.5 mph 64 % 0.00 in
04:19 52.6 °F 40.8 °F 29.81 in WSW 1.2 mph 2.0 mph 64 % 0.00 in
04:24 52.6 °F 40.8 °F 29.81 in WSW 0.9 mph 2.3 mph 64 % 0.00 in
04:29 52.6 °F 41.2 °F 29.81 in WSW 1.2 mph 2.3 mph 65 % 0.00 in
04:34 52.6 °F 41.6 °F 29.81 in SW 2.5 mph 4.6 mph 66 % 0.00 in
04:40 52.5 °F 41.5 °F 29.81 in SW 0.7 mph 2.3 mph 66 % 0.00 in
04:45 52.4 °F 41.4 °F 29.81 in SW 0.3 mph 2.0 mph 66 % 0.00 in
04:50 52.4 °F 41.8 °F 29.81 in SW 0.7 mph 3.5 mph 67 % 0.00 in
04:55 52.3 °F 41.7 °F 29.81 in WSW 1.0 mph 2.3 mph 67 % 0.00 in
05:00 52.2 °F 42.0 °F 29.81 in WSW 0.5 mph 2.3 mph 68 % 0.00 in
05:05 52.2 °F 41.9 °F 29.81 in Calm   2.0 mph 68 % 0.00 in
05:10 52.1 °F 41.8 °F 29.80 in WSW 1.0 mph 2.0 mph 68 % 0.00 in
05:15 52.0 °F 42.1 °F 29.80 in Calm   1.0 mph 69 % 0.00 in
05:20 51.9 °F 42.0 °F 29.80 in Calm     69 % 0.00 in
05:25 51.8 °F 41.9 °F 29.80 in WSW 1.0 mph 3.0 mph 69 % 0.00 in
05:30 51.7 °F 42.2 °F 29.80 in WSW 2.0 mph 4.0 mph 70 % 0.00 in
05:35 51.6 °F 42.5 °F 29.80 in Calm   2.0 mph 71 % 0.00 in
05:40 51.5 °F 42.8 °F 29.80 in Calm   1.0 mph 72 % 0.00 in
05:45 51.4 °F 42.7 °F 29.80 in WSW 1.0 mph 2.0 mph 72 % 0.00 in
05:50 51.4 °F 42.7 °F 29.80 in Calm   1.0 mph 72 % 0.00 in
05:55 51.3 °F 42.6 °F 29.79 in Calm     72 % 0.00 in
06:00 51.2 °F 42.5 °F 29.79 in Calm     72 % 0.00 in
06:05 51.1 °F 42.7 °F 29.79 in WSW 1.4 mph 2.3 mph 73 % 0.00 in
06:10 50.9 °F 42.9 °F 29.79 in WSW 0.2 mph 1.2 mph 74 % 0.00 in
06:16 50.8 °F 42.8 °F 29.79 in Calm     74 % 0.00 in
06:21 50.6 °F 42.6 °F 29.79 in Calm     74 % 0.00 in
06:26 50.5 °F 42.5 °F 29.79 in Calm     74 % 0.00 in
06:31 50.4 °F 42.4 °F 29.79 in Calm     74 % 0.00 in
06:36 50.3 °F 43.0 °F 29.79 in Calm     76 % 0.00 in
06:41 50.1 °F 43.2 °F 29.79 in Calm     77 % 0.00 in
06:46 50.0 °F 43.1 °F 29.79 in Calm     77 % 0.00 in
06:51 49.9 °F 43.0 °F 29.80 in Calm     77 % 0.00 in
06:56 49.8 °F 42.9 °F 29.80 in Calm     77 % 0.00 in
07:01 49.7 °F 42.8 °F 29.80 in Calm     77 % 0.00 in
07:06 49.6 °F 43.0 °F 29.80 in Calm     78 % 0.00 in
07:12 49.5 °F 42.9 °F 29.80 in Calm     78 % 0.00 in
07:17 49.5 °F 42.9 °F 29.81 in Calm     78 % 0.00 in
07:22 49.4 °F 43.2 °F 29.81 in Calm     79 % 0.00 in
07:27 49.4 °F 43.5 °F 29.81 in Calm     80 % 0.00 in
07:32 49.4 °F 43.5 °F 29.82 in Calm     80 % 0.00 in
07:37 49.5 °F 43.9 °F 29.82 in Calm     81 % 0.00 in
07:42 49.6 °F 44.0 °F 29.82 in WSW 0.5 mph 2.3 mph 81 % 0.00 in
07:47 49.7 °F 44.1 °F 29.82 in SW 0.8 mph 3.5 mph 81 % 0.00 in
07:52 50.0 °F 44.4 °F 29.83 in WSW 2.5 mph 3.5 mph 81 % 0.00 in
07:57 50.2 °F 44.3 °F 29.82 in WSW 1.7 mph 4.6 mph 80 % 0.00 in
08:03 50.5 °F 44.6 °F 29.82 in SW 0.5 mph 2.3 mph 80 % 0.00 in
08:08 50.9 °F 44.6 °F 29.82 in SSW 0.2 mph 2.0 mph 79 % 0.00 in
08:13 51.2 °F 44.9 °F 29.82 in West 2.3 mph 3.5 mph 79 % 0.00 in
08:18 51.5 °F 45.2 °F 29.82 in SSW 2.6 mph 3.5 mph 79 % 0.00 in
08:23 51.9 °F 45.6 °F 29.82 in West 2.6 mph 3.5 mph 79 % 0.00 in
08:28 52.2 °F 45.5 °F 29.82 in WSW 2.1 mph 2.3 mph 78 % 0.00 in
08:33 52.4 °F 45.4 °F 29.82 in SW 1.3 mph 3.5 mph 77 % 0.00 in
08:38 52.6 °F 45.6 °F 29.82 in WSW 1.8 mph 3.5 mph 77 % 0.00 in
08:43 52.8 °F 45.4 °F 29.82 in WSW 1.0 mph 3.5 mph 76 % 0.00 in
08:48 53.0 °F 45.3 °F 29.82 in West 1.2 mph 2.3 mph 75 % 0.00 in
08:54 53.1 °F 45.7 °F 29.82 in SW 1.3 mph 3.5 mph 76 % 0.00 in
08:59 53.3 °F 45.6 °F 29.82 in WSW 2.4 mph 3.5 mph 75 % 0.00 in
09:04 53.4 °F 46.0 °F 29.82 in WSW 3.9 mph 6.9 mph 76 % 0.00 in
09:09 53.6 °F 45.9 °F 29.82 in WSW 2.2 mph 3.5 mph 75 % 0.00 in
09:14 53.7 °F 46.3 °F 29.82 in WSW 0.3 mph 2.3 mph 76 % 0.00 in
09:19 53.8 °F 46.4 °F 29.82 in WSW 1.5 mph 3.0 mph 76 % 0.00 in
09:24 53.9 °F 46.9 °F 29.82 in WSW 1.7 mph 3.5 mph 77 % 0.00 in
09:29 54.1 °F 47.0 °F 29.81 in WSW 0.3 mph 1.2 mph 77 % 0.00 in
09:34 54.2 °F 47.1 °F 29.81 in Calm     77 % 0.00 in
09:39 54.3 °F 47.6 °F 29.81 in Calm     78 % 0.00 in
09:45 54.5 °F 47.8 °F 29.81 in Calm     78 % 0.00 in
09:50 54.6 °F 47.5 °F 29.81 in WSW 0.6 mph 1.2 mph 77 % 0.00 in
09:55 54.8 °F 47.7 °F 29.81 in West 1.3 mph 3.5 mph 77 % 0.00 in
10:00 55.0 °F 47.9 °F 29.81 in West 0.1 mph 1.2 mph 77 % 0.00 in
10:05 55.2 °F 48.1 °F 29.81 in Calm   1.2 mph 77 % 0.00 in
10:10 55.4 °F 48.3 °F 29.81 in West 1.4 mph 3.0 mph 77 % 0.00 in
10:15 55.7 °F 48.6 °F 29.81 in West 0.9 mph 2.3 mph 77 % 0.00 in
10:20 56.0 °F 48.9 °F 29.82 in West 2.0 mph 6.0 mph 77 % 0.00 in
10:25 56.2 °F 49.1 °F 29.82 in West 2.0 mph 5.0 mph 77 % 0.00 in
10:30 56.5 °F 49.0 °F 29.82 in West 4.2 mph 5.8 mph 76 % 0.00 in
10:35 56.6 °F 48.1 °F 29.81 in WNW 3.0 mph 7.0 mph 73 % 0.00 in
10:40 56.8 °F 48.2 °F 29.81 in NW 0.6 mph 5.8 mph 73 % 0.00 in
10:45 56.9 °F 48.3 °F 29.81 in NW 1.5 mph 3.0 mph 73 % 0.00 in
10:50 57.0 °F 48.1 °F 29.81 in WNW 1.3 mph 3.5 mph 72 % 0.00 in
10:55 57.1 °F 47.8 °F 29.81 in NW 1.3 mph 3.5 mph 71 % 0.00 in
11:01 57.1 °F 47.8 °F 29.80 in WNW 1.4 mph 6.9 mph 71 % 0.00 in
11:06 57.0 °F 48.4 °F 29.80 in WNW 1.1 mph 4.0 mph 73 % 0.00 in
11:11 57.0 °F 47.7 °F 29.81 in WNW 2.1 mph 3.5 mph 71 % 0.00 in
11:16 56.9 °F 48.0 °F 29.81 in WNW 1.4 mph 3.0 mph 72 % 0.00 in
11:21 56.8 °F 48.2 °F 29.80 in NNW 0.6 mph 2.3 mph 73 % 0.00 in
11:26 56.7 °F 48.1 °F 29.80 in NNW 0.4 mph 2.3 mph 73 % 0.00 in
11:31 56.7 °F 48.1 °F 29.80 in NNW 0.5 mph 1.2 mph 73 % 0.00 in
11:36 56.6 °F 48.4 °F 29.80 in NNW 0.1 mph 3.5 mph 74 % 0.00 in
11:41 56.6 °F 48.4 °F 29.80 in NNW 1.3 mph 3.5 mph 74 % 0.00 in
11:46 56.5 °F 47.9 °F 29.80 in WNW 0.3 mph 2.3 mph 73 % 0.00 in
11:52 56.5 °F 48.3 °F 29.80 in NW 0.5 mph 3.5 mph 74 % 0.00 in
11:57 56.5 °F 48.7 °F 29.79 in WNW 0.8 mph 3.5 mph 75 % 0.00 in
12:07 56.4 °F 48.2 °F 29.79 in WNW 1.5 mph 3.5 mph 74 % 0.00 in
12:12 56.4 °F 48.2 °F 29.79 in WNW 0.9 mph 3.5 mph 74 % 0.00 in
12:17 56.3 °F 48.5 °F 29.78 in North 1.9 mph 4.0 mph 75 % 0.00 in
12:22 56.2 °F 48.4 °F 29.79 in WNW 2.2 mph 3.5 mph 75 % 0.00 in
12:27 56.2 °F 48.0 °F 29.79 in WNW 1.8 mph 4.6 mph 74 % 0.00 in
12:32 56.1 °F 47.9 °F 29.79 in NW 1.8 mph 3.5 mph 74 % 0.00 in
12:38 56.1 °F 48.6 °F 29.79 in NW 0.6 mph 3.0 mph 76 % 0.00 in
12:43 56.0 °F 48.5 °F 29.78 in WNW 0.3 mph 3.5 mph 76 % 0.00 in
12:48 56.0 °F 49.6 °F 29.78 in WNW 0.2 mph 1.2 mph 79 % 0.00 in
12:53 56.0 °F 49.2 °F 29.78 in Calm   1.0 mph 78 % 0.00 in
12:58 56.1 °F 49.0 °F 29.78 in Calm   1.2 mph 77 % 0.00 in
13:03 56.1 °F 49.3 °F 29.78 in WNW 0.6 mph 1.2 mph 78 % 0.00 in
13:08 56.1 °F 49.3 °F 29.78 in WNW 0.7 mph 2.3 mph 78 % 0.00 in
13:13 56.1 °F 49.0 °F 29.78 in WNW 0.4 mph 1.2 mph 77 % 0.00 in
13:18 56.1 °F 49.0 °F 29.78 in WNW 0.4 mph 1.2 mph 77 % 0.00 in
13:24 56.2 °F 49.4 °F 29.77 in Calm     78 % 0.00 in
13:29 56.3 °F 49.5 °F 29.77 in WNW 0.8 mph 3.0 mph 78 % 0.00 in
13:34 56.4 °F 49.6 °F 29.77 in WNW 0.5 mph 2.3 mph 78 % 0.00 in
13:39 56.5 °F 49.4 °F 29.77 in Calm     77 % 0.00 in
13:44 56.6 °F 49.5 °F 29.77 in WNW 1.0 mph 3.0 mph 77 % 0.00 in
13:49 56.7 °F 49.6 °F 29.77 in WNW 0.3 mph 2.0 mph 77 % 0.00 in
13:54 56.8 °F 49.3 °F 29.77 in Calm     76 % 0.00 in
13:59 56.8 °F 49.3 °F 29.77 in Calm     76 % 0.00 in
14:04 56.8 °F 49.0 °F 29.77 in WNW 1.3 mph 3.5 mph 75 % 0.00 in
14:09 56.8 °F 49.0 °F 29.77 in West 0.5 mph 1.2 mph 75 % 0.00 in
14:15 56.8 °F 49.0 °F 29.77 in Calm   1.0 mph 75 % 0.00 in
14:20 56.8 °F 49.0 °F 29.77 in WNW 0.3 mph 1.2 mph 75 % 0.00 in
14:30 56.7 °F 48.9 °F 29.77 in WNW 0.3 mph 2.3 mph 75 % 0.00 in
14:35 56.7 °F 48.9 °F 29.77 in West 0.9 mph 2.3 mph 75 % 0.00 in
14:40 56.6 °F 49.1 °F 29.77 in West 2.2 mph 3.5 mph 76 % 0.00 in
14:45 56.5 °F 49.0 °F 29.77 in Calm     76 % 0.00 in
14:50 56.4 °F 48.9 °F 29.77 in Calm     76 % 0.00 in
14:55 56.4 °F 48.9 °F 29.77 in Calm     76 % 0.00 in
15:00 56.3 °F 49.2 °F 29.76 in Calm     77 % 0.00 in
15:05 56.2 °F 49.1 °F 29.76 in West 0.2 mph   77 % 0.00 in
15:10 56.2 °F 49.1 °F 29.76 in Calm   1.2 mph 77 % 0.00 in
15:15 56.1 °F 49.0 °F 29.76 in Calm     77 % 0.00 in
15:21 56.1 °F 49.0 °F 29.77 in Calm     77 % 0.00 in
15:26 56.0 °F 49.2 °F 29.77 in Calm     78 % 0.00 in
15:31 55.9 °F 49.5 °F 29.77 in Calm     79 % 0.00 in
15:36 55.9 °F 49.5 °F 29.77 in NW 2.1 mph 3.5 mph 79 % 0.00 in
15:41 55.8 °F 50.1 °F 29.77 in West 1.5 mph 3.5 mph 81 % 0.00 in
15:46 55.7 °F 50.0 °F 29.77 in WNW 1.9 mph 4.6 mph 81 % 0.00 in
15:51 55.7 °F 50.3 °F 29.77 in WNW 0.6 mph 4.6 mph 82 % 0.00 in
15:56 55.6 °F 50.2 °F 29.78 in WNW 0.2 mph 1.2 mph 82 % 0.00 in
16:01 55.6 °F 50.5 °F 29.78 in WNW 1.6 mph 4.0 mph 83 % 0.00 in
16:12 55.5 °F 50.7 °F 29.78 in Calm     84 % 0.00 in
16:17 55.5 °F 50.7 °F 29.78 in WNW 1.3 mph 3.0 mph 84 % 0.00 in
16:22 55.4 °F 50.6 °F 29.78 in NW 0.7 mph 2.3 mph 84 % 0.00 in
16:27 55.3 °F 50.5 °F 29.78 in WNW 0.4 mph 2.3 mph 84 % 0.00 in
16:32 55.3 °F 50.5 °F 29.78 in Calm   1.2 mph 84 % 0.00 in
16:37 55.2 °F 50.4 °F 29.78 in WNW 0.2 mph 1.2 mph 84 % 0.00 in
16:42 55.2 °F 50.4 °F 29.78 in WNW 0.3 mph 3.5 mph 84 % 0.00 in
16:52 55.1 °F 50.7 °F 29.78 in NW 0.5 mph 5.0 mph 85 % 0.00 in
16:57 55.1 °F 50.7 °F 29.78 in Calm   1.2 mph 85 % 0.00 in
17:03 55.0 °F 50.6 °F 29.78 in Calm     85 % 0.00 in
17:08 55.0 °F 50.6 °F 29.79 in Calm     85 % 0.00 in
17:13 55.0 °F 50.6 °F 29.79 in NNE 1.2 mph 3.0 mph 85 % 0.00 in
17:18 55.0 °F 50.9 °F 29.79 in North 1.3 mph 3.5 mph 86 % 0.00 in
17:23 55.1 °F 51.0 °F 29.79 in NNW 0.6 mph 3.5 mph 86 % 0.00 in
17:28 55.0 °F 50.9 °F 29.80 in NNE 0.7 mph 2.3 mph 86 % 0.00 in
17:33 55.1 °F 50.7 °F 29.80 in NNE 4.2 mph 9.2 mph 85 % 0.00 in
17:38 55.0 °F 50.3 °F 29.80 in North 1.0 mph 5.8 mph 84 % 0.00 in
17:43 55.0 °F 49.9 °F 29.80 in NE 3.2 mph 4.6 mph 83 % 0.00 in
17:48 55.1 °F 50.0 °F 29.81 in NNW 3.1 mph 4.6 mph 83 % 0.00 in
17:53 55.1 °F 50.0 °F 29.81 in NW 2.0 mph 3.5 mph 83 % 0.00 in
17:59 55.1 °F 50.0 °F 29.81 in North 3.1 mph 5.8 mph 83 % 0.00 in
18:04 55.1 °F 50.0 °F 29.81 in North 1.9 mph 3.5 mph 83 % 0.00 in
18:09 55.2 °F 50.1 °F 29.81 in North 3.4 mph 4.0 mph 83 % 0.00 in
18:14 55.2 °F 50.4 °F 29.81 in NE 3.5 mph 5.0 mph 84 % 0.00 in
18:19 55.2 °F 50.4 °F 29.81 in North 1.6 mph 3.5 mph 84 % 0.00 in
18:24 55.1 °F 50.4 °F 29.82 in NNW 2.2 mph 4.6 mph 84 % 0.00 in
18:29 55.1 °F 50.7 °F 29.82 in North 1.9 mph 3.5 mph 85 % 0.00 in
18:34 55.1 °F 50.7 °F 29.82 in NNE 3.9 mph 5.0 mph 85 % 0.00 in
18:39 55.1 °F 50.7 °F 29.82 in NNW 4.3 mph 6.9 mph 85 % 0.00 in
18:44 55.0 °F 50.6 °F 29.82 in WNW 2.7 mph 5.8 mph 85 % 0.00 in
18:49 55.0 °F 50.6 °F 29.83 in NNW 1.7 mph 6.9 mph 85 % 0.00 in
18:55 54.9 °F 50.5 °F 29.83 in NNW 4.6 mph 8.1 mph 85 % 0.00 in
19:00 54.9 °F 50.5 °F 29.83 in NW 0.9 mph 2.3 mph 85 % 0.00 in
19:05 54.8 °F 50.4 °F 29.83 in NNW 5.3 mph 10.4 mph 85 % 0.00 in
19:10 54.7 °F 50.3 °F 29.83 in NNW 5.3 mph 8.1 mph 85 % 0.00 in
19:15 54.6 °F 50.2 °F 29.83 in North 5.7 mph 12.7 mph 85 % 0.00 in
19:20 54.5 °F 50.1 °F 29.83 in NNE 7.7 mph 9.2 mph 85 % 0.00 in
19:25 54.4 °F 49.7 °F 29.83 in NNE 8.8 mph 11.5 mph 84 % 0.00 in
19:30 54.3 °F 49.6 °F 29.83 in NNW 8.6 mph 10.4 mph 84 % 0.00 in
19:35 54.2 °F 49.5 °F 29.83 in North 7.0 mph 14.0 mph 84 % 0.00 in
19:40 54.1 °F 49.4 °F 29.83 in NNE 10.0 mph 17.0 mph 84 % 0.00 in
19:45 54.0 °F 49.3 °F 29.84 in North 6.4 mph 12.0 mph 84 % 0.00 in
19:50 53.9 °F 49.2 °F 29.84 in North 7.0 mph 16.0 mph 84 % 0.00 in
19:55 53.9 °F 49.2 °F 29.84 in North 7.4 mph 12.7 mph 84 % 0.00 in
20:00 53.8 °F 49.1 °F 29.84 in NE 6.4 mph 13.0 mph 84 % 0.00 in
20:05 53.8 °F 49.1 °F 29.84 in NNE 6.1 mph 9.2 mph 84 % 0.00 in
20:10 53.8 °F 49.4 °F 29.84 in North 5.3 mph 10.0 mph 85 % 0.00 in
20:16 53.7 °F 49.0 °F 29.85 in NE 9.2 mph 12.7 mph 84 % 0.00 in
20:21 53.7 °F 49.0 °F 29.85 in North 7.0 mph 10.4 mph 84 % 0.00 in
20:26 53.6 °F 48.6 °F 29.85 in North 9.1 mph 13.8 mph 83 % 0.00 in
20:31 53.5 °F 48.5 °F 29.85 in North 11.3 mph 15.0 mph 83 % 0.00 in
20:36 53.4 °F 48.0 °F 29.86 in North 6.6 mph 13.8 mph 82 % 0.00 in
20:41 53.4 °F 48.0 °F 29.85 in North 6.2 mph 15.0 mph 82 % 0.00 in
20:46 53.3 °F 48.3 °F 29.86 in NNW 3.2 mph 9.2 mph 83 % 0.00 in
20:51 53.3 °F 47.9 °F 29.86 in North 8.0 mph 11.5 mph 82 % 0.00 in
20:56 53.2 °F 47.5 °F 29.86 in NE 7.5 mph 11.5 mph 81 % 0.00 in
21:01 53.2 °F 47.5 °F 29.86 in NNE 5.0 mph 11.5 mph 81 % 0.00 in
21:06 53.1 °F 47.4 °F 29.86 in NNE 4.7 mph 12.7 mph 81 % 0.00 in
21:11 53.0 °F 47.0 °F 29.86 in NNE 8.0 mph 11.5 mph 80 % 0.00 in
21:17 52.9 °F 46.9 °F 29.86 in North 6.7 mph 15.0 mph 80 % 0.00 in
21:27 52.7 °F 46.4 °F 29.87 in NNE 8.9 mph 14.0 mph 79 % 0.00 in
21:32 52.5 °F 46.5 °F 29.87 in North 8.6 mph 13.8 mph 80 % 0.00 in
21:37 52.4 °F 46.4 °F 29.88 in NNW 5.3 mph 9.2 mph 80 % 0.00 in
21:42 52.3 °F 46.0 °F 29.87 in North 7.9 mph 12.7 mph 79 % 0.00 in
21:47 52.0 °F 45.4 °F 29.88 in North 7.0 mph 12.7 mph 78 % 0.00 in
21:52 51.9 °F 45.3 °F 29.88 in North 5.2 mph 10.4 mph 78 % 0.00 in
21:57 51.8 °F 45.5 °F 29.88 in NNW 4.6 mph 8.1 mph 79 % 0.00 in
22:02 51.7 °F 45.4 °F 29.88 in NNE 5.9 mph 10.4 mph 79 % 0.00 in
22:07 51.5 °F 44.9 °F 29.88 in NNW 3.0 mph 8.1 mph 78 % 0.00 in
22:13 51.4 °F 44.8 °F 29.89 in North 5.3 mph 11.5 mph 78 % 0.00 in
22:18 51.3 °F 44.7 °F 29.89 in NNW 6.5 mph 9.0 mph 78 % 0.00 in
22:23 51.2 °F 44.6 °F 29.89 in NNW 2.6 mph 6.9 mph 78 % 0.00 in
22:28 51.1 °F 44.5 °F 29.89 in NNW 6.1 mph 11.5 mph 78 % 0.00 in
22:33 51.1 °F 44.1 °F 29.89 in NNE 9.1 mph 13.8 mph 77 % 0.00 in
22:38 51.0 °F 44.4 °F 29.89 in North 3.5 mph 6.0 mph 78 % 0.00 in
22:43 50.9 °F 43.9 °F 29.89 in NNE 6.5 mph 12.7 mph 77 % 0.00 in
22:48 50.9 °F 43.9 °F 29.89 in NE 4.5 mph 11.5 mph 77 % 0.00 in
22:53 50.8 °F 43.8 °F 29.89 in NW 4.8 mph 11.5 mph 77 % 0.00 in
22:58 50.7 °F 43.8 °F 29.89 in North 7.3 mph 11.5 mph 77 % 0.00 in
23:04 50.6 °F 43.3 °F 29.89 in North 9.5 mph 15.0 mph 76 % 0.00 in
23:09 50.5 °F 43.2 °F 29.89 in North 9.3 mph 17.0 mph 76 % 0.00 in
23:14 50.4 °F 43.1 °F 29.89 in NNW 8.2 mph 16.1 mph 76 % 0.00 in
23:19 50.3 °F 43.0 °F 29.89 in NNE 9.6 mph 13.8 mph 76 % 0.00 in
23:24 50.2 °F 43.3 °F 29.90 in North 8.2 mph 12.0 mph 77 % 0.00 in
23:29 50.1 °F 42.8 °F 29.90 in NNE 9.4 mph 12.7 mph 76 % 0.00 in
23:34 50.0 °F 43.1 °F 29.90 in North 9.8 mph 11.5 mph 77 % 0.00 in
23:39 49.9 °F 43.3 °F 29.89 in NNE 8.7 mph 12.0 mph 78 % 0.00 in
23:49 49.6 °F 43.0 °F 29.90 in North 5.7 mph 11.5 mph 78 % 0.00 in
23:55 49.5 °F 42.9 °F 29.90 in NE 5.6 mph 10.4 mph 78 % 0.00 in
Crab Meadow Weather
Compliments of Weather Underground - 3 mb

Script developed by  Jim McMurry - jmcmurry@mwt.net Adapted for the template by  Wim van der Kuil - Leuven-Template.eu

Recycling: A used aluminum can is recycled and back on the grocery shelf as a new can, in as little as 60 days.